Airfield :







YOU CAN JOIN US ON...

 
LOGIN :

Register | Disclaimer

   EN    FR    IT 

 









Legend :    VFR   Marginal VFR   IFR   Intensive IFR   Very Intensive IFR
Visi :
Ceiling :
>= 8 km
>= 3000ft
5 to 8 km
1000 to 3000 ft
1500m to 5 km
500 to 1000 ft
800 to 1500m
200 to 500 ft
< 800m
< 200 ft
Symbols :   Thunderstorms  Fog  Heavy snow  Heavy precipitations  Wind > 20 kt






- Airport Elevation : 47 ft
- IATA code : PUJ


MDPC - Punta Cana Int.

CURRENT METAR :
  • 221300Z 23005KT 9999 BKN018 BKN300 25/22 Q1012

EXPIRED METARs :
  • 221200Z 00000KT 9999 BKN018 BKN300 20/19 Q1012 RESH
  • 221100Z 00000KT 9999 SCT018 BKN300 19/19 Q1011

TAF TAF MDPC
Valid from the 22 at 12:00 until the 23 at 12:00 UTC


221000Z 2212/2312 17010KT 9999 FEW020 BKN300
PROB30 2213/2218 8000 -RA BKN018 BKN300



MET'MAP, your aeronautical weather chart ! - Copyright ORBIFLY December 2007 - Disclaimer

ORBIFLY MET'MAP TEAM :

Programming & Development : Alexandra Zaïnal
Concept & original design : Baudouin d'Aumeries
Assistance for programming : Marc-Olivier Méhu
Technical & hardware support : Manuel Goepfert

Contact : metmap@orbifly.com




SOURCES & CREDITS :

   NOAA